Time;durP1;ratioP1;P1;durP2;ratioP2;P2;SDS_P1;SDS_P2;PMS_P1;PMS_P2;Temp;Humidity;BMP_temperature;BMP_pressure;BME280_temperature;BME280_humidity;BME280_pressure;Samples;Min_cycle;Max_cycle;Signal;HPM_P1;HPM_P2
2021/09/21 00:00:42;;;;;;;4.72;2.13;;;15.80;76.20;;;;;;5083273;28;20444;-79
2021/09/21 00:03:08;;;;;;;5.63;2.22;;;15.90;76.50;;;;;;5097869;28;20087;-80
2021/09/21 00:05:34;;;;;;;7.90;2.25;;;15.90;76.40;;;;;;5097666;28;20747;-79
2021/09/21 00:08:00;;;;;;;6.60;2.50;;;15.90;76.10;;;;;;5099128;28;20027;-80
2021/09/21 00:10:25;;;;;;;6.25;2.05;;;15.80;76.60;;;;;;5097947;28;20032;-79
2021/09/21 00:12:52;;;;;;;3.50;1.85;;;15.80;76.40;;;;;;5077497;28;20078;-79
2021/09/21 00:15:21;;;;;;;6.03;1.90;;;15.80;76.50;;;;;;5082035;28;20517;-79
2021/09/21 00:17:48;;;;;;;3.10;1.85;;;15.80;76.60;;;;;;5077358;28;20024;-80
2021/09/21 00:20:15;;;;;;;6.32;2.55;;;15.80;77.10;;;;;;5093665;28;20028;-79
2021/09/21 00:22:42;;;;;;;4.97;2.20;;;15.70;77.10;;;;;;5102065;28;20063;-79
2021/09/21 00:25:09;;;;;;;4.10;2.63;;;15.70;77.40;;;;;;5119241;28;20035;-80
2021/09/21 00:27:35;;;;;;;6.15;2.05;;;15.60;78.00;;;;;;5116823;28;20603;-79
2021/09/21 00:30:03;;;;;;;3.88;1.75;;;15.60;77.90;;;;;;5080362;28;20032;-79
2021/09/21 00:32:28;;;;;;;4.78;2.65;;;15.60;77.70;;;;;;5098697;28;20115;-79
2021/09/21 00:34:54;;;;;;;4.05;2.38;;;15.70;77.60;;;;;;5099187;28;20059;-79
2021/09/21 00:37:20;;;;;;;3.15;2.20;;;15.70;77.50;;;;;;5113275;28;20040;-80
2021/09/21 00:39:46;;;;;;;4.10;2.25;;;15.70;77.40;;;;;;5106424;28;20487;-80
2021/09/21 00:42:15;;;;;;;5.57;2.70;;;15.70;77.30;;;;;;5118990;28;20050;-80
2021/09/21 00:44:41;;;;;;;3.75;2.45;;;15.70;77.60;;;;;;5106240;28;20111;-80
2021/09/21 00:47:10;;;;;;;8.95;2.90;;;15.60;77.60;;;;;;5098581;28;20854;-80
2021/09/21 00:49:37;;;;;;;4.82;2.45;;;15.60;77.70;;;;;;5098306;28;20088;-80
2021/09/21 00:52:04;;;;;;;6.55;2.60;;;15.50;77.70;;;;;;5098383;28;20056;-79
2021/09/21 00:54:30;;;;;;;8.10;2.63;;;15.50;77.60;;;;;;5098137;28;20020;-80
2021/09/21 00:56:56;;;;;;;7.93;2.80;;;15.50;77.80;;;;;;5091223;28;20028;-80
2021/09/21 00:59:22;;;;;;;3.78;2.40;;;15.40;77.80;;;;;;5098290;28;20125;-80
2021/09/21 01:01:48;;;;;;;4.18;2.00;;;15.40;77.70;;;;;;5079811;28;20048;-80
2021/09/21 01:04:15;;;;;;;4.93;2.58;;;15.40;77.60;;;;;;5097945;28;20032;-80
2021/09/21 01:06:41;;;;;;;8.95;2.78;;;15.30;77.70;;;;;;5097933;28;20123;-80
2021/09/21 01:09:22;;;;;;;6.78;2.55;;;15.40;77.60;;;;;;5111186;28;20059;-80
2021/09/21 01:11:48;;;;;;;;;;;15.30;77.70;;;;;;5118706;28;20028;-80
2021/09/21 01:14:14;;;;;;;5.68;2.90;;;15.40;77.60;;;;;;5118183;28;19912;-80
2021/09/21 01:16:40;;;;;;;4.50;2.30;;;15.30;77.30;;;;;;5098235;28;20746;-80
2021/09/21 01:19:05;;;;;;;4.63;2.35;;;15.30;77.40;;;;;;5103820;28;20081;-80
2021/09/21 01:21:31;;;;;;;5.53;2.47;;;15.30;77.20;;;;;;5118231;28;20147;-80
2021/09/21 01:23:57;;;;;;;6.00;2.50;;;15.20;77.20;;;;;;5117804;28;20513;-80
2021/09/21 01:26:24;;;;;;;4.13;2.40;;;15.20;77.00;;;;;;5079787;28;20119;-79
2021/09/21 01:28:51;;;;;;;3.17;2.03;;;15.20;77.60;;;;;;5097564;28;20028;-79
2021/09/21 01:31:17;;;;;;;4.13;2.53;;;15.10;78.00;;;;;;5097638;28;20024;-80
2021/09/21 01:33:49;;;;;;;4.43;2.55;;;15.20;77.80;;;;;;5097363;28;20024;-80
2021/09/21 01:36:17;;;;;;;5.30;2.28;;;15.10;78.10;;;;;;5097545;28;20020;-79
2021/09/21 01:38:43;;;;;;;4.57;2.33;;;15.10;77.90;;;;;;5097121;28;20035;-80
2021/09/21 01:41:08;;;;;;;3.65;2.38;;;15.10;77.90;;;;;;5097420;28;20013;-80
2021/09/21 01:43:34;;;;;;;6.00;2.50;;;15.00;78.00;;;;;;5135444;27;20030;-80
2021/09/21 01:46:00;;;;;;;5.45;2.55;;;15.00;78.60;;;;;;5107065;27;20028;-79
2021/09/21 01:48:25;;;;;;;4.40;2.83;;;15.00;78.80;;;;;;5097128;28;20020;-79
2021/09/21 01:51:02;;;;;;;6.55;2.90;;;15.00;78.90;;;;;;5097237;28;20022;-80
2021/09/21 01:58:55;;;;;;;9.63;3.15;;;15.00;79.20;;;;;;5117724;28;20098;-80
2021/09/21 02:01:24;;;;;;;4.03;2.80;;;15.10;79.00;;;;;;5099145;28;20039;-80
2021/09/21 02:03:54;;;;;;;7.25;3.05;;;15.10;78.70;;;;;;5094287;28;20059;-80
2021/09/21 02:06:33;;;;;;;5.72;2.97;;;15.20;78.50;;;;;;5096895;28;20052;-80
2021/09/21 02:09:02;;;;;;;8.68;2.60;;;15.10;79.50;;;;;;5095500;28;20051;-79
2021/09/21 02:11:28;;;;;;;4.03;2.75;;;15.00;79.80;;;;;;5096872;28;20036;-80
2021/09/21 02:13:57;;;;;;;11.30;3.20;;;15.00;79.90;;;;;;5078202;28;20028;-80
2021/09/21 02:16:27;;;;;;;7.35;3.03;;;15.00;79.60;;;;;;5078412;28;20028;-80
2021/09/21 02:18:53;;;;;;;;;;;15.10;79.50;;;;;;5096942;28;20063;-80
2021/09/21 02:21:19;;;;;;;4.00;2.25;;;15.20;79.30;;;;;;5096640;28;19911;-80
2021/09/21 02:23:45;;;;;;;4.13;2.60;;;15.20;79.20;;;;;;5096283;28;20048;-80
2021/09/21 02:26:16;;;;;;;7.50;2.80;;;15.20;79.00;;;;;;5077969;28;20481;-80
2021/09/21 02:28:41;;;;;;;;;;;15.20;79.20;;;;;;5095584;28;20024;-80
2021/09/21 02:31:07;;;;;;;6.80;2.80;;;15.20;79.10;;;;;;5096557;28;19915;-80
2021/09/21 02:33:32;;;;;;;11.20;3.15;;;15.20;78.70;;;;;;5096125;28;20032;-80
2021/09/21 02:35:58;;;;;;;10.88;2.83;;;15.10;78.80;;;;;;5096349;28;20036;-80
2021/09/21 02:38:24;;;;;;;7.90;2.88;;;15.20;78.80;;;;;;5096313;28;20091;-79
2021/09/21 02:40:50;;;;;;;5.28;2.75;;;15.10;78.60;;;;;;5093732;28;20054;-80
2021/09/21 02:43:18;;;;;;;8.88;3.08;;;15.10;79.10;;;;;;5128930;27;20019;-80
2021/09/21 02:45:43;;;;;;;4.88;2.90;;;15.10;78.90;;;;;;5137003;27;20030;-80
2021/09/21 02:48:09;;;;;;;9.40;3.60;;;15.10;79.30;;;;;;5137084;27;20031;-80
2021/09/21 02:50:35;;;;;;;7.03;3.08;;;15.10;79.30;;;;;;5099207;27;20066;-80
2021/09/21 02:53:02;;;;;;;5.93;3.25;;;15.00;79.60;;;;;;5077863;28;20440;-79
2021/09/21 02:55:28;;;;;;;9.65;4.00;;;15.00;79.50;;;;;;5094583;28;20945;-80
2021/09/21 02:57:53;;;;;;;4.30;3.40;;;15.00;79.50;;;;;;5095849;28;20073;-80
2021/09/21 03:00:27;;;;;;;6.82;3.17;;;15.10;79.50;;;;;;5095927;28;20031;-80
2021/09/21 03:02:54;;;;;;;7.35;3.40;;;15.10;79.20;;;;;;5095880;28;20024;-80
2021/09/21 03:05:24;;;;;;;8.10;3.58;;;15.20;79.30;;;;;;5106767;28;20132;-80
2021/09/21 03:13:56;;;;;;;5.18;3.53;;;15.20;79.40;;;;;;5098591;28;20028;-80
2021/09/21 03:18:28;;;;;;;8.23;3.85;;;15.20;79.40;;;;;;5095507;28;20050;-80
2021/09/21 03:20:54;;;;;;;7.00;3.88;;;15.10;79.50;;;;;;5095760;28;20024;-81
2021/09/21 03:23:19;;;;;;;9.57;4.15;;;15.00;79.80;;;;;;5095444;28;20119;-80
2021/09/21 03:25:45;;;;;;;6.18;3.92;;;15.00;79.70;;;;;;5095788;28;20065;-80
2021/09/21 03:28:11;;;;;;;7.93;3.72;;;15.00;79.70;;;;;;5095408;28;20036;-80
2021/09/21 03:30:37;;;;;;;5.60;3.30;;;15.00;79.70;;;;;;5095474;28;20025;-80
2021/09/21 03:33:03;;;;;;;7.95;4.22;;;15.00;79.60;;;;;;5093754;28;20024;-80
2021/09/21 03:35:28;;;;;;;8.25;4.55;;;15.00;79.40;;;;;;5092797;28;20505;-80
2021/09/21 03:37:54;;;;;;;7.28;3.70;;;14.90;79.60;;;;;;5095650;28;20024;-80
2021/09/21 03:40:20;;;;;;;6.25;3.92;;;14.90;79.40;;;;;;5095646;28;20403;-80
2021/09/21 03:42:46;;;;;;;6.85;4.15;;;14.90;79.60;;;;;;5114999;28;20027;-80
2021/09/21 03:45:12;;;;;;;9.00;3.90;;;14.80;79.70;;;;;;5116558;28;20031;-80
2021/09/21 03:47:37;;;;;;;7.20;3.53;;;14.80;79.80;;;;;;5097930;28;20027;-80
2021/09/21 03:50:05;;;;;;;8.48;4.60;;;14.80;79.90;;;;;;5115956;28;20024;-80
2021/09/21 03:52:31;;;;;;;7.63;4.82;;;14.80;79.90;;;;;;5097255;28;20099;-80
2021/09/21 03:54:56;;;;;;;7.40;3.97;;;14.80;80.00;;;;;;5116159;28;20142;-80
2021/09/21 03:57:24;;;;;;;13.27;4.88;;;14.80;79.90;;;;;;5097516;28;20028;-80
2021/09/21 03:59:50;;;;;;;10.43;4.25;;;14.80;79.90;;;;;;5093986;28;20501;-80
2021/09/21 04:02:16;;;;;;;8.38;4.15;;;14.70;80.30;;;;;;5077064;28;20123;-80
2021/09/21 04:04:41;;;;;;;7.45;4.93;;;14.70;80.10;;;;;;5094819;28;20036;-80
2021/09/21 04:07:07;;;;;;;6.18;3.92;;;14.70;79.90;;;;;;5093952;28;20077;-80
2021/09/21 04:09:33;;;;;;;6.63;4.22;;;14.70;80.30;;;;;;5095288;28;20034;-80
2021/09/21 04:11:58;;;;;;;7.47;4.80;;;14.70;80.20;;;;;;5093640;28;20126;-80
2021/09/21 04:14:24;;;;;;;7.57;3.72;;;14.80;80.20;;;;;;5094901;28;20031;-79
2021/09/21 04:16:50;;;;;;;7.35;3.97;;;14.70;80.10;;;;;;5095245;28;20021;-81
2021/09/21 04:19:15;;;;;;;7.57;3.70;;;14.80;80.10;;;;;;5110905;28;20058;-80
2021/09/21 04:21:41;;;;;;;6.85;3.65;;;14.70;80.10;;;;;;5115468;28;20370;-80
2021/09/21 04:24:07;;;;;;;9.43;4.30;;;14.80;80.00;;;;;;5115515;28;20047;-82
2021/09/21 04:26:33;;;;;;;7.45;4.35;;;14.70;80.20;;;;;;5095645;28;20409;-81
2021/09/21 04:28:58;;;;;;;7.40;4.82;;;14.70;79.90;;;;;;5095056;28;20047;-82
2021/09/21 04:31:27;;;;;;;9.52;4.57;;;14.70;80.20;;;;;;5077019;28;20497;-80
2021/09/21 04:33:53;;;;;;;7.28;4.30;;;14.70;80.30;;;;;;5094665;28;20554;-80
2021/09/21 04:36:19;;;;;;;8.18;4.70;;;14.70;80.30;;;;;;5079274;28;20042;-80
2021/09/21 04:38:45;;;;;;;11.18;5.18;;;14.70;80.40;;;;;;5095093;28;20024;-80
2021/09/21 04:41:11;;;;;;;13.07;5.65;;;14.70;80.50;;;;;;5094865;28;20025;-80
2021/09/21 04:43:37;;;;;;;8.98;4.68;;;14.70;80.40;;;;;;5116369;27;20040;-80
2021/09/21 04:46:06;;;;;;;6.95;4.85;;;14.70;80.40;;;;;;5107995;28;20024;-80
2021/09/21 04:48:35;;;;;;;9.43;5.18;;;14.70;80.60;;;;;;5100326;28;20027;-81
2021/09/21 04:51:02;;;;;;;6.63;4.10;;;14.70;80.50;;;;;;5100656;28;20054;-80
2021/09/21 04:53:28;;;;;;;7.88;4.68;;;14.70;80.60;;;;;;5096134;28;20028;-77
2021/09/21 04:55:54;;;;;;;8.10;5.10;;;14.70;80.70;;;;;;5098206;28;20022;-78
2021/09/21 04:58:19;;;;;;;9.10;5.35;;;14.70;80.30;;;;;;5096209;28;20089;-78
2021/09/21 05:00:45;;;;;;;9.90;4.72;;;14.70;80.50;;;;;;5080019;28;20047;-83
2021/09/21 05:03:11;;;;;;;7.85;5.13;;;14.70;80.90;;;;;;5098020;28;20028;-79
2021/09/21 05:05:39;;;;;;;12.35;5.60;;;14.70;80.70;;;;;;5086852;28;20122;-79
2021/09/21 05:08:05;;;;;;;10.13;4.55;;;14.70;80.20;;;;;;5100415;28;20027;-79
2021/09/21 05:10:33;;;;;;;9.95;5.45;;;14.70;80.50;;;;;;5118475;28;20031;-81
2021/09/21 05:12:59;;;;;;;9.23;5.65;;;14.70;80.40;;;;;;5118360;28;20035;-80
2021/09/21 05:15:26;;;;;;;9.65;5.40;;;14.70;80.50;;;;;;5110555;28;20036;-81
2021/09/21 05:17:52;;;;;;;8.35;4.78;;;14.70;80.30;;;;;;5115990;28;20039;-84
2021/09/21 05:20:17;;;;;;;8.75;5.25;;;14.70;80.40;;;;;;5095527;28;20024;-81
2021/09/21 05:22:51;;;;;;;9.93;5.18;;;14.70;80.60;;;;;;5097925;28;20136;-84
2021/09/21 05:25:17;;;;;;;8.57;5.78;;;14.60;81.00;;;;;;5117154;28;20031;-81
2021/09/21 05:27:43;;;;;;;9.57;5.72;;;14.60;81.10;;;;;;5118429;28;20362;-85
2021/09/21 05:30:10;;;;;;;11.13;5.38;;;14.70;81.00;;;;;;5118173;28;20056;-84
2021/09/21 05:32:36;;;;;;;10.63;5.30;;;14.60;80.90;;;;;;5113221;28;20022;-83
2021/09/21 05:35:01;;;;;;;8.82;5.82;;;14.60;81.20;;;;;;5081395;28;20098;-83
2021/09/21 05:37:30;;;;;;;11.40;6.22;;;14.60;80.80;;;;;;5116189;28;20030;-82
2021/09/21 05:39:55;;;;;;;12.38;7.10;;;14.60;81.00;;;;;;5117593;28;20051;-83
2021/09/21 05:42:21;;;;;;;9.70;5.97;;;14.60;81.00;;;;;;5123462;27;20030;-83
2021/09/21 05:44:47;;;;;;;10.85;6.20;;;14.60;81.10;;;;;;5121698;27;20076;-83
2021/09/21 05:47:12;;;;;;;9.57;6.00;;;14.60;81.30;;;;;;5117595;28;20032;-83
2021/09/21 05:49:39;;;;;;;12.65;7.07;;;14.60;80.70;;;;;;5099044;28;20109;-83
2021/09/21 05:52:05;;;;;;;11.05;6.68;;;14.60;80.60;;;;;;5102907;28;20028;-83
2021/09/21 05:54:31;;;;;;;10.05;5.82;;;14.60;80.90;;;;;;5117060;28;20063;-79
2021/09/21 05:57:00;;;;;;;11.65;6.60;;;14.60;81.10;;;;;;5113933;28;20024;-80
2021/09/21 05:59:25;;;;;;;10.73;6.80;;;14.60;81.20;;;;;;5095787;28;20032;-80
2021/09/21 06:01:51;;;;;;;12.65;6.75;;;14.60;80.80;;;;;;5098371;28;20112;-79
2021/09/21 06:04:17;;;;;;;9.82;6.55;;;14.60;80.80;;;;;;5099098;28;20485;-81
2021/09/21 06:06:43;;;;;;;10.32;6.90;;;14.60;81.00;;;;;;5100846;28;20097;-80
2021/09/21 06:09:09;;;;;;;13.55;6.72;;;14.60;80.90;;;;;;5102874;28;20077;-80
2021/09/21 06:11:34;;;;;;;11.80;6.90;;;14.60;80.90;;;;;;5117302;28;20046;-80
2021/09/21 06:14:05;;;;;;;19.30;7.22;;;14.60;81.10;;;;;;5097997;28;20508;-80
2021/09/21 06:16:32;;;;;;;10.63;6.90;;;14.60;81.00;;;;;;5096768;28;20066;-80
2021/09/21 06:18:58;;;;;;;12.23;6.97;;;14.60;81.30;;;;;;5096571;28;20017;-80
2021/09/21 06:21:25;;;;;;;13.18;7.60;;;14.60;81.10;;;;;;5078110;28;20020;-80
2021/09/21 06:23:51;;;;;;;12.23;7.25;;;14.60;80.80;;;;;;5096489;28;20052;-80
2021/09/21 06:26:18;;;;;;;13.18;7.90;;;14.70;81.20;;;;;;5096520;28;20027;-80
2021/09/21 06:28:43;;;;;;;15.68;7.57;;;14.70;81.10;;;;;;5096832;28;20020;-80
2021/09/21 06:31:09;;;;;;;11.05;7.38;;;14.80;81.10;;;;;;5094936;28;20458;-80
2021/09/21 06:33:35;;;;;;;14.10;8.25;;;14.80;81.00;;;;;;5096334;28;20050;-80
2021/09/21 06:36:01;;;;;;;13.25;7.53;;;14.90;80.80;;;;;;5096027;28;20024;-80
2021/09/21 06:38:27;;;;;;;13.40;7.15;;;15.00;80.60;;;;;;5096364;28;20024;-80
2021/09/21 06:40:52;;;;;;;12.60;7.72;;;15.00;80.40;;;;;;5080588;28;20473;-80
2021/09/21 06:43:18;;;;;;;13.88;7.30;;;15.10;80.10;;;;;;5117286;27;20072;-80
2021/09/21 06:45:44;;;;;;;12.45;6.90;;;15.20;80.10;;;;;;5116630;28;20032;-80
2021/09/21 06:48:11;;;;;;;11.93;7.10;;;15.30;80.00;;;;;;5110747;28;20044;-80
2021/09/21 06:50:37;;;;;;;14.68;8.02;;;15.40;79.70;;;;;;5094843;28;20032;-80
2021/09/21 06:53:03;;;;;;;13.73;7.35;;;15.50;79.30;;;;;;5095914;28;20019;-80
2021/09/21 06:55:28;;;;;;;13.50;7.65;;;15.70;79.00;;;;;;5096048;28;20032;-80
2021/09/21 06:57:56;;;;;;;15.30;7.80;;;15.80;78.70;;;;;;5096082;28;20050;-80
2021/09/21 07:00:22;;;;;;;14.43;8.05;;;15.80;78.60;;;;;;5094722;28;20032;-80
2021/09/21 07:02:53;;;;;;;14.88;8.27;;;15.80;79.00;;;;;;5095856;28;20016;-80
2021/09/21 07:05:21;;;;;;;13.80;8.25;;;15.80;79.00;;;;;;5095583;28;20039;-80
2021/09/21 07:07:49;;;;;;;13.25;8.90;;;15.80;78.80;;;;;;5077073;28;20028;-80
2021/09/21 07:10:17;;;;;;;21.27;11.32;;;15.80;79.00;;;;;;5095856;28;20078;-80
2021/09/21 07:12:43;;;;;;;17.45;10.23;;;15.80;79.20;;;;;;5095646;28;20035;-80
2021/09/21 07:15:10;;;;;;;16.02;8.55;;;15.80;79.30;;;;;;5095678;28;20024;-80
2021/09/21 07:17:35;;;;;;;17.00;9.40;;;15.80;79.40;;;;;;5095792;28;20020;-80
2021/09/21 07:20:01;;;;;;;17.67;9.60;;;15.90;79.30;;;;;;5077196;28;20085;-80
2021/09/21 07:22:29;;;;;;;14.15;8.63;;;15.90;79.30;;;;;;5095445;28;20020;-80
2021/09/21 07:24:55;;;;;;;18.48;8.85;;;16.00;79.00;;;;;;5095669;28;20040;-80
2021/09/21 07:27:22;;;;;;;18.85;9.15;;;16.00;78.90;;;;;;5095516;28;20063;-80
2021/09/21 07:29:47;;;;;;;16.55;9.00;;;16.10;78.80;;;;;;5095649;28;20032;-80
2021/09/21 07:32:13;;;;;;;18.00;9.23;;;16.20;78.90;;;;;;5095558;28;20111;-80
2021/09/21 07:34:38;;;;;;;15.35;10.00;;;16.20;79.10;;;;;;5095209;28;20394;-80
2021/09/21 07:37:05;;;;;;;17.27;9.82;;;16.20;78.80;;;;;;5095434;28;20066;-80
2021/09/21 07:39:31;;;;;;;15.02;9.65;;;16.30;79.10;;;;;;5095612;28;20051;-80
2021/09/21 07:41:57;;;;;;;19.85;9.32;;;16.30;79.00;;;;;;5087448;28;20019;-80
2021/09/21 07:44:23;;;;;;;13.73;8.80;;;16.30;79.00;;;;;;5099372;28;20039;-80
2021/09/21 07:46:49;;;;;;;16.63;9.27;;;16.40;78.70;;;;;;5095549;28;20024;-80
2021/09/21 07:49:15;;;;;;;15.82;9.00;;;16.50;78.40;;;;;;5095344;28;20103;-80
2021/09/21 07:51:41;;;;;;;22.20;9.60;;;16.50;78.80;;;;;;5095769;28;20059;-80
2021/09/21 07:54:08;;;;;;;14.38;8.40;;;16.50;78.70;;;;;;5094919;28;20020;-80
2021/09/21 07:56:35;;;;;;;17.30;10.07;;;16.50;78.70;;;;;;5095332;28;20421;-80
2021/09/21 07:59:02;;;;;;;15.15;9.13;;;16.60;78.80;;;;;;5095418;28;20047;-80
2021/09/21 08:01:29;;;;;;;18.85;9.30;;;16.70;78.70;;;;;;5095168;28;20035;-80
2021/09/21 08:03:56;;;;;;;16.15;9.73;;;16.80;78.70;;;;;;5095140;28;20044;-79
2021/09/21 08:06:22;;;;;;;16.50;9.43;;;16.80;78.20;;;;;;5095006;28;20024;-80
2021/09/21 08:08:48;;;;;;;15.35;8.82;;;16.90;78.50;;;;;;5095074;28;20024;-80
2021/09/21 08:11:14;;;;;;;16.30;9.68;;;16.90;78.50;;;;;;5095224;28;20024;-80
2021/09/21 08:13:39;;;;;;;18.15;10.60;;;17.00;78.40;;;;;;5095240;28;20028;-80
2021/09/21 08:16:05;;;;;;;14.82;9.52;;;17.10;78.30;;;;;;5095054;28;20028;-80
2021/09/21 08:18:31;;;;;;;16.40;9.40;;;17.20;78.10;;;;;;5097691;28;20020;-79
2021/09/21 08:20:57;;;;;;;12.88;8.75;;;17.30;78.10;;;;;;5099234;28;20012;-80
2021/09/21 08:23:23;;;;;;;17.30;9.27;;;17.30;77.70;;;;;;5098704;28;20051;-80
2021/09/21 08:25:49;;;;;;;16.88;9.20;;;17.40;77.80;;;;;;5099019;28;20108;-80
2021/09/21 08:28:14;;;;;;;17.25;9.50;;;17.50;77.80;;;;;;5098893;28;20028;-80
2021/09/21 08:30:40;;;;;;;16.73;10.18;;;17.50;77.90;;;;;;5080536;28;20408;-80
2021/09/21 08:33:06;;;;;;;14.32;9.13;;;17.70;77.70;;;;;;5096286;28;20028;-80
2021/09/21 08:35:31;;;;;;;18.67;10.65;;;17.70;77.50;;;;;;5098337;28;20035;-80
2021/09/21 08:37:58;;;;;;;14.02;8.68;;;17.80;77.60;;;;;;5098673;28;20020;-80
2021/09/21 08:40:24;;;;;;;15.25;8.90;;;17.90;77.20;;;;;;5080353;28;20504;-80
2021/09/21 08:42:50;;;;;;;15.57;9.85;;;18.10;77.00;;;;;;5122096;27;20023;-80
2021/09/21 08:45:16;;;;;;;15.13;9.77;;;18.20;76.50;;;;;;5095853;28;20032;-80
2021/09/21 08:47:42;;;;;;;18.88;10.30;;;18.40;75.70;;;;;;5098671;28;20081;-80
2021/09/21 08:50:10;;;;;;;15.98;9.50;;;19.40;73.40;;;;;;5098407;28;20032;-80
2021/09/21 08:52:40;;;;;;;16.55;9.77;;;19.90;71.20;;;;;;5098162;28;20032;-81
2021/09/21 08:55:09;;;;;;;18.77;10.52;;;20.40;70.00;;;;;;5098178;28;20525;-80
2021/09/21 08:57:36;;;;;;;18.50;10.98;;;21.10;67.80;;;;;;5097058;28;20032;-81
2021/09/21 09:00:04;;;;;;;15.30;10.45;;;21.80;66.00;;;;;;5113379;28;20079;-81
2021/09/21 09:02:30;;;;;;;15.20;10.38;;;22.00;64.70;;;;;;5118808;28;20367;-78
2021/09/21 09:05:03;;;;;;;16.58;10.05;;;21.80;65.10;;;;;;5118478;28;20025;-81
2021/09/21 09:07:54;;;;;;;13.00;8.50;;;21.50;64.80;;;;;;5118719;28;20057;-81
2021/09/21 09:10:21;;;;;;;14.30;9.63;;;21.10;66.20;;;;;;5098399;28;20107;-81
2021/09/21 09:12:47;;;;;;;15.93;9.48;;;20.80;67.30;;;;;;5098090;28;20154;-81
2021/09/21 09:15:20;;;;;;;10.93;7.93;;;20.50;67.60;;;;;;5099309;28;20032;-81
2021/09/21 09:18:05;;;;;;;10.45;8.43;;;20.20;68.10;;;;;;5118549;28;20030;-81
2021/09/21 09:20:39;;;;;;;12.57;8.80;;;20.00;67.60;;;;;;5112415;28;20035;-81
2021/09/21 09:23:07;;;;;;;12.80;9.50;;;19.80;68.40;;;;;;5097779;28;20152;-82
2021/09/21 09:25:40;;;;;;;13.23;8.40;;;19.70;68.10;;;;;;5097655;28;20032;-81
2021/09/21 09:28:11;;;;;;;12.63;8.70;;;19.70;69.20;;;;;;5097844;28;20028;-81
2021/09/21 09:30:36;;;;;;;13.50;9.20;;;19.80;69.00;;;;;;5115079;28;20116;-81
2021/09/21 09:33:03;;;;;;;15.43;9.27;;;19.80;67.80;;;;;;5113017;28;20028;-81
2021/09/21 09:35:35;;;;;;;12.48;8.65;;;19.80;67.40;;;;;;5097364;28;20053;-81
2021/09/21 09:38:09;;;;;;;15.70;9.43;;;20.00;67.10;;;;;;5115234;28;20034;-82
2021/09/21 09:40:55;;;;;;;11.52;7.85;;;20.30;67.20;;;;;;5117828;28;20051;-81
2021/09/21 09:43:25;;;;;;;11.07;8.48;;;20.30;66.60;;;;;;5121257;27;20026;-81
2021/09/21 09:45:55;;;;;;;;;;;20.10;65.60;;;;;;5097991;28;20020;-81
2021/09/21 09:48:22;;;;;;;12.20;8.35;;;20.10;66.20;;;;;;5097590;28;19910;-81
2021/09/21 09:50:50;;;;;;;13.10;7.95;;;20.30;66.60;;;;;;5108252;28;20110;-81
2021/09/21 09:53:19;;;;;;;12.35;7.85;;;20.60;66.70;;;;;;5117693;28;20110;-81
2021/09/21 09:55:50;;;;;;;10.60;6.80;;;20.80;65.30;;;;;;5117566;28;20027;-81
2021/09/21 09:58:17;;;;;;;9.50;6.60;;;20.80;64.20;;;;;;5115363;28;20031;-81
2021/09/21 10:00:43;;;;;;;10.20;7.18;;;21.00;63.60;;;;;;5097279;28;20028;-81
2021/09/21 10:03:09;;;;;;;11.07;7.07;;;21.00;62.60;;;;;;5097102;28;20016;-81
2021/09/21 10:05:37;;;;;;;11.38;6.95;;;21.00;61.70;;;;;;5096864;28;20028;-81
2021/09/21 10:08:04;;;;;;;11.05;7.75;;;21.10;60.40;;;;;;5096826;28;20038;-81
2021/09/21 10:10:31;;;;;;;9.45;7.25;;;21.10;61.10;;;;;;5096894;28;20028;-81
2021/09/21 10:13:03;;;;;;;11.10;7.30;;;21.10;61.10;;;;;;5079085;28;20481;-80
2021/09/21 10:15:29;;;;;;;12.32;7.50;;;20.90;61.40;;;;;;5096879;28;20056;-81
2021/09/21 10:17:58;;;;;;;8.90;6.93;;;20.90;61.60;;;;;;5096748;28;20086;-81
2021/09/21 10:20:36;;;;;;;11.20;6.80;;;20.80;61.20;;;;;;5096745;28;20359;-81
2021/09/21 10:23:05;;;;;;;8.50;5.75;;;20.80;62.80;;;;;;5078530;28;20560;-80
2021/09/21 10:25:36;;;;;;;8.45;6.13;;;20.80;61.10;;;;;;5078509;28;20036;-81
2021/09/21 10:28:12;;;;;;;8.02;6.05;;;20.70;61.40;;;;;;5096440;28;20055;-81
2021/09/21 10:30:38;;;;;;;9.90;6.25;;;20.80;61.00;;;;;;5096596;28;20056;-81
2021/09/21 10:33:03;;;;;;;9.75;6.43;;;20.80;60.70;;;;;;5078461;28;20024;-81
2021/09/21 10:35:31;;;;;;;8.85;5.97;;;20.70;61.20;;;;;;5094834;28;20498;-80
2021/09/21 10:38:08;;;;;;;9.93;6.68;;;20.80;61.00;;;;;;5078133;28;20375;-81
2021/09/21 10:40:43;;;;;;;7.30;5.50;;;20.80;60.30;;;;;;5095651;28;20020;-81
2021/09/21 10:43:24;;;;;;;7.75;5.47;;;20.80;59.80;;;;;;5122073;27;20489;-80
2021/09/21 10:45:51;;;;;;;6.15;5.32;;;20.80;60.80;;;;;;5107442;28;20043;-80
2021/09/21 10:48:21;;;;;;;8.43;5.90;;;20.90;58.50;;;;;;5094875;28;20393;-81
2021/09/21 10:50:58;;;;;;;8.70;6.03;;;21.00;59.50;;;;;;5096502;28;20024;-80
2021/09/21 10:53:25;;;;;;;7.53;5.15;;;21.00;58.60;;;;;;5098818;28;20020;-80
2021/09/21 10:56:14;;;;;;;7.47;4.50;;;21.20;58.90;;;;;;5116543;28;20029;-81
2021/09/21 10:58:57;;;;;;;8.80;6.32;;;21.40;59.20;;;;;;5116483;28;20421;-81
2021/09/21 11:01:22;;;;;;;8.38;5.78;;;21.50;59.10;;;;;;5094534;28;20383;-81
2021/09/21 11:03:48;;;;;;;6.72;5.53;;;21.70;59.20;;;;;;5095957;28;20030;-81
2021/09/21 11:06:15;;;;;;;8.15;6.00;;;21.70;58.80;;;;;;5095886;28;20081;-81
2021/09/21 11:08:41;;;;;;;9.15;6.30;;;21.80;57.90;;;;;;5095868;28;20020;-81
2021/09/21 11:11:08;;;;;;;8.55;6.38;;;21.50;58.50;;;;;;5096134;28;20043;-81
2021/09/21 11:13:43;;;;;;;5.72;5.07;;;21.60;58.50;;;;;;5077334;28;20143;-81
2021/09/21 11:16:14;;;;;;;11.52;6.45;;;21.70;58.00;;;;;;5095974;28;20036;-81
2021/09/21 11:18:44;;;;;;;7.18;5.65;;;21.70;58.10;;;;;;5095771;28;20019;-81
2021/09/21 11:21:11;;;;;;;8.70;6.28;;;21.70;57.20;;;;;;5095822;28;20096;-81
2021/09/21 11:23:41;;;;;;;8.57;6.13;;;21.80;56.90;;;;;;5109862;28;20043;-81
2021/09/21 11:26:10;;;;;;;7.68;5.35;;;21.60;56.90;;;;;;5116090;28;20111;-81
2021/09/21 11:28:41;;;;;;;7.70;5.65;;;21.40;57.70;;;;;;5116107;28;20501;-81
2021/09/21 11:31:07;;;;;;;5.53;4.57;;;21.40;56.30;;;;;;5099738;28;20066;-81
2021/09/21 11:33:35;;;;;;;7.75;5.43;;;21.50;56.40;;;;;;5095656;28;20070;-81
2021/09/21 11:36:05;;;;;;;8.82;5.63;;;21.60;56.70;;;;;;5100918;28;20566;-81
2021/09/21 11:38:33;;;;;;;6.85;5.05;;;21.70;56.10;;;;;;5115997;28;20504;-81
2021/09/21 11:41:00;;;;;;;6.90;5.10;;;21.80;56.80;;;;;;5098860;28;20032;-81
2021/09/21 11:43:27;;;;;;;8.57;5.32;;;22.00;56.00;;;;;;5123869;28;20023;-81
2021/09/21 11:45:52;;;;;;;6.55;4.53;;;22.10;54.60;;;;;;5115856;28;20034;-81
2021/09/21 11:48:20;;;;;;;7.55;5.00;;;22.10;54.90;;;;;;5114870;28;20485;-81
2021/09/21 11:50:46;;;;;;;6.25;5.03;;;22.20;56.90;;;;;;5095508;28;20035;-81
2021/09/21 11:53:14;;;;;;;7.00;4.90;;;22.30;55.50;;;;;;5097611;28;20035;-81
2021/09/21 11:55:43;;;;;;;7.82;5.80;;;22.30;55.80;;;;;;5099497;28;20043;-81
2021/09/21 11:58:10;;;;;;;10.90;6.18;;;21.90;54.60;;;;;;5099440;28;20500;-81
2021/09/21 12:01:01;;;;;;;7.70;4.60;;;21.90;54.80;;;;;;5099880;28;20024;-81
2021/09/21 12:03:28;;;;;;;5.70;4.22;;;21.70;53.20;;;;;;5099339;28;20032;-81
2021/09/21 12:05:56;;;;;;;6.60;4.35;;;21.70;52.60;;;;;;5100295;28;20073;-80
2021/09/21 12:08:26;;;;;;;5.88;4.32;;;21.80;54.00;;;;;;5101490;28;20087;-81
2021/09/21 12:11:08;;;;;;;6.60;4.95;;;22.00;54.00;;;;;;5119775;28;20043;-81
2021/09/21 12:13:35;;;;;;;7.47;5.03;;;22.20;54.40;;;;;;5119620;28;20080;-81
2021/09/21 12:16:03;;;;;;;7.50;4.00;;;22.30;53.80;;;;;;5104526;28;20489;-81
2021/09/21 12:18:31;;;;;;;5.82;3.75;;;22.50;54.20;;;;;;5099055;28;20028;-81
2021/09/21 12:21:05;;;;;;;6.47;4.18;;;22.40;53.00;;;;;;5105129;28;20394;-81
2021/09/21 12:23:34;;;;;;;5.03;3.92;;;22.10;53.20;;;;;;5101298;28;20056;-81
2021/09/21 12:26:03;;;;;;;4.65;3.63;;;22.10;51.60;;;;;;5105054;28;20430;-81
2021/09/21 12:28:31;;;;;;;4.18;3.55;;;22.00;52.90;;;;;;5091908;28;20020;-80
2021/09/21 12:31:04;;;;;;;5.95;3.92;;;22.00;52.30;;;;;;5098980;28;20097;-81
2021/09/21 12:33:35;;;;;;;6.63;3.60;;;22.10;52.60;;;;;;5098874;28;20050;-81
2021/09/21 12:36:00;;;;;;;4.88;3.22;;;22.20;52.30;;;;;;5098734;28;20115;-81
2021/09/21 12:38:26;;;;;;;5.25;2.83;;;22.10;50.80;;;;;;5098770;28;20059;-81
2021/09/21 12:40:58;;;;;;;4.65;3.38;;;22.30;51.30;;;;;;5093145;28;20035;-81
2021/09/21 12:43:33;;;;;;;4.15;3.40;;;22.50;51.40;;;;;;5127090;27;20047;-81
2021/09/21 12:46:03;;;;;;;4.80;3.08;;;22.60;52.10;;;;;;5119121;28;20039;-81
2021/09/21 12:48:35;;;;;;;4.07;3.58;;;22.70;50.60;;;;;;5117691;28;20107;-81
2021/09/21 12:51:06;;;;;;;3.78;3.10;;;22.90;49.30;;;;;;5119345;28;20114;-81
2021/09/21 12:53:32;;;;;;;4.28;3.30;;;22.80;50.60;;;;;;5118922;28;20026;-81
2021/09/21 12:55:58;;;;;;;4.78;2.85;;;22.70;49.90;;;;;;5117836;28;20027;-81
2021/09/21 12:58:33;;;;;;;5.28;3.50;;;22.80;49.90;;;;;;5098490;28;20020;-81